Historique des mesures à Cassis (13260), France
Quotidien Résumé Juillet 8, 2017 Unités:  Métrique    US   Métrique/US
« Précédent (Jour)
Suivant (Jour) »
Quotidien Hebdomadaire Mensuel Annuel Période au choix
  Maximum: Minimum: Moyenne:
Température: TemperatureC °C 24.9 °C 26.6 °C
Point de rosée: DewpointC °C 10.2 °C 15.2 °C
Humidité: Humidity % 39 % 47 %
Vitesse du vent: 0 km/h 0 km/h 3.1 km/h
Rafales: 0 km/h - -
Vent:- - SSE
Pression: PressurehPa hPa 1010.0 hPa -
Précipitations: 0.0 mm    
Historical Graphs
 
 
Mesures pour : Juillet 8, 2017
Heure Temperature Point de rosée Pression Vent Vitesse du vent Rafales Humidité Pluie (par heure) Conditions
TemperatureC °C DewpointC °C PressurehPa hPa Calm     Humidity % HourlyPrecipMM mm SoftwareType W/m2
00:10 25.6 °C 13.1 °C 1013.1 hPa North 2.3 km/h 10.9 km/h 46 % 0.0 mm open2300-1.11 W/m2
01:11 26.1 °C 13.2 °C 1012.8 hPa NNW 7.6 km/h 15.6 km/h 45 % 0.0 mm open2300-1.11 W/m2
02:11 25.3 °C 12.1 °C 1012.1 hPa West 6.9 km/h 7.6 km/h 44 % 0.0 mm open2300-1.11 W/m2
03:11 25.3 °C 11.4 °C 1011.7 hPa Calm     42 % 0.0 mm open2300-1.11 W/m2
04:11 25.5 °C 11.3 °C 1011.7 hPa Calm   2.3 km/h 41 % 0.0 mm open2300-1.11 W/m2
05:10 25.3 °C 10.8 °C 1011.4 hPa Calm     40 % 0.0 mm open2300-1.11 W/m2
06:11 25.1 °C 10.2 °C 1011.4 hPa NNE 2.3 km/h 3.4 km/h 39 % 0.0 mm open2300-1.11 W/m2
07:10 24.9 °C 11.4 °C 1012.1 hPa Calm   2.3 km/h 43 % 0.0 mm open2300-1.11 W/m2
08:11 24.9 °C 11.8 °C 1012.4 hPa Calm     44 % 0.0 mm open2300-1.11 W/m2
09:11 25.8 °C 13.3 °C 1012.4 hPa Calm   5.1 km/h 46 % 0.0 mm open2300-1.11 W/m2
10:11 27.9 °C 15.5 °C 1012.4 hPa SSE 9.8 km/h 9.8 km/h 47 % 0.0 mm open2300-1.11 W/m2
11:10 30.6 °C 18.7 °C 1012.4 hPa SSW 9.8 km/h 9.8 km/h 49 % 0.0 mm open2300-1.11 W/m2
12:11 31.4 °C 20.1 °C 1012.4 hPa SSW 2.3 km/h 5.6 km/h 51 % 0.0 mm open2300-1.11 W/m2
13:11 30.8 °C 20.7 °C 1013.1 hPa South 11.6 km/h 11.6 km/h 55 % 0.0 mm open2300-1.11 W/m2
14:10 30.8 °C 21.0 °C 1013.1 hPa WSW 9.3 km/h 10.3 km/h 56 % 0.0 mm open2300-1.11 W/m2
15:11 30.9 °C 20.8 °C 1012.4 hPa ESE 2.3 km/h 6.4 km/h 55 % 0.0 mm open2300-1.11 W/m2
16:10 30.5 °C 20.7 °C 1012.1 hPa Calm   3.4 km/h 56 % 0.0 mm open2300-1.11 W/m2
17:11 30.4 °C 19.7 °C 1011.1 hPa SSE 6.4 km/h 6.4 km/h 53 % 0.0 mm open2300-1.11 W/m2
18:11 30.3 °C 18.4 °C 1011.1 hPa ESE 1.8 km/h 3.4 km/h 49 % 0.0 mm open2300-1.11 W/m2
19:11 29.5 °C 16.7 °C 1010.7 hPa SSE 4.7 km/h 4.7 km/h 46 % 0.0 mm open2300-1.11 W/m2
20:11 27.6 °C 18.6 °C 1010.7 hPa Calm     58 % 0.0 mm open2300-1.11 W/m2
21:10 26.6 °C 17.7 °C 1010.7 hPa Calm     58 % 0.0 mm open2300-1.11 W/m2
22:11 26.5 °C 17.0 °C 1010.4 hPa Calm   1.8 km/h 56 % 0.0 mm open2300-1.11 W/m2
23:11 26.4 °C 16.6 °C 1010.0 hPa Calm   7.6 km/h 55 % 0.0 mm open2300-1.11 W/m2
Observations météo à CASSIS
WU-History script by Weather Underground - 1 mb